60VA weather

H D H Heliport
Richmond, Virginia, United States

Public forecast

Using degrees Fahrenheit for public forecast. Weather courtesy of forecast.io.

Closest aviation weather report (METAR) to H D H Heliport

Closest report is Hanover County Municipal Airport, 8.0 nm (14.8 km) NE. Retrieved 2020/05/31 14:54 UTC (8 minutes ago):

KOFP 311454Z AUTO 10SM CLR 22/06 A3017 RMK AO2 SLP215 T02170061 50007

Closest aviation forecast (TAF) to H D H Heliport

Closest forecast is Richmond International Airport, 12.1 nm (22.5 km) ESE. Retrieved 2020/05/31 12:22 UTC (3 hours ago):

TAF KRIC 311120Z 3112/0112 01012KT P6SM BKN080 FM311500 36010KT P6SM SCT050 FM010000 35005KT P6SM SKC